createdAt,value
2018-05-27T00:01:08.339Z,95827.66
2018-05-27T00:03:36.780Z,95824.55
2018-05-27T00:06:05.218Z,95816.53
2018-05-27T00:08:33.667Z,95818.39
2018-05-27T00:11:02.083Z,95817.57
2018-05-27T00:13:30.556Z,95809.86
2018-05-27T00:15:58.979Z,95805.61
2018-05-27T00:18:27.431Z,95802.05
2018-05-27T00:20:55.855Z,95787.77
2018-05-27T00:23:24.299Z,95782.72
2018-05-27T00:25:52.713Z,95785.23
2018-05-27T00:28:21.177Z,95785.67
2018-05-27T00:30:49.588Z,95779.59
2018-05-27T00:33:18.031Z,95780.56
2018-05-27T00:35:46.449Z,95774.23
2018-05-27T00:38:14.923Z,95778.21
2018-05-27T00:40:43.329Z,95775.85
2018-05-27T00:43:11.803Z,95776.16
2018-05-27T00:45:40.231Z,95770.51
2018-05-27T00:48:08.699Z,95777.55
2018-05-27T00:50:37.906Z,95769.92
2018-05-27T00:53:07.137Z,95781.16
2018-05-27T00:55:35.609Z,95774.41
2018-05-27T00:58:04.091Z,95772.40
2018-05-27T01:00:32.521Z,95767.40
2018-05-27T01:03:00.963Z,95764.08
2018-05-27T01:05:29.441Z,95764.62
2018-05-27T01:07:57.927Z,95761.83
2018-05-27T01:10:26.350Z,95756.07
2018-05-27T01:12:54.797Z,95753.64
2018-05-27T01:15:23.246Z,95753.38
2018-05-27T01:17:51.784Z,95750.31
2018-05-27T01:20:20.225Z,95752.45
2018-05-27T01:22:49.494Z,95744.86
2018-05-27T01:25:17.942Z,95745.49
2018-05-27T01:27:46.415Z,95745.44
2018-05-27T01:30:15.688Z,95742.66
2018-05-27T01:32:44.138Z,95744.33
2018-05-27T01:35:12.552Z,95741.08
2018-05-27T01:37:41.021Z,95727.75
2018-05-27T01:40:09.464Z,95727.75
2018-05-27T01:42:37.925Z,95730.31
2018-05-27T01:45:07.157Z,95731.06
2018-05-27T01:47:35.616Z,95733.03
2018-05-27T01:50:04.084Z,95726.17
2018-05-27T01:52:32.569Z,95724.20
2018-05-27T01:55:01.011Z,95728.50
2018-05-27T01:57:29.490Z,95724.94
2018-05-27T01:59:57.934Z,95730.09
2018-05-27T02:02:26.439Z,95726.02
2018-05-27T02:04:55.703Z,95723.89
2018-05-27T02:07:24.163Z,95724.31
2018-05-27T02:09:52.598Z,95722.42
2018-05-27T02:12:21.083Z,95728.88
2018-05-27T02:14:49.604Z,95721.43
2018-05-27T02:17:18.064Z,95732.02
2018-05-27T02:19:47.287Z,95714.41
2018-05-27T02:22:15.716Z,95721.20
2018-05-27T02:24:44.232Z,95718.63
2018-05-27T02:27:12.720Z,95721.02
2018-05-27T02:29:41.198Z,95712.48
2018-05-27T02:32:09.671Z,95717.64
2018-05-27T02:34:39.191Z,95715.07
2018-05-27T02:37:09.573Z,95705.17
2018-05-27T02:39:38.156Z,95699.61
2018-05-27T02:42:06.607Z,95698.70
2018-05-27T02:44:35.853Z,95698.28
2018-05-27T02:47:04.280Z,95694.33
2018-05-27T02:49:32.744Z,95694.40
2018-05-27T02:52:01.187Z,95691.13
2018-05-27T02:54:29.670Z,95689.76
2018-05-27T02:56:58.143Z,95689.24
2018-05-27T02:59:26.615Z,95692.14
2018-05-27T03:01:55.810Z,95689.56
2018-05-27T03:04:24.354Z,95685.50
2018-05-27T03:06:52.805Z,95687.78
2018-05-27T03:09:21.272Z,95689.48
2018-05-27T03:11:50.498Z,95687.08
2018-05-27T03:14:18.948Z,95682.66
2018-05-27T03:16:47.384Z,95683.62
2018-05-27T03:19:15.843Z,95689.11
2018-05-27T03:21:45.036Z,95680.11
2018-05-27T03:24:14.298Z,95675.75
2018-05-27T03:26:42.732Z,95673.50
2018-05-27T03:29:11.999Z,95666.80
2018-05-27T03:31:40.432Z,95667.44
2018-05-27T03:34:08.900Z,95664.69
2018-05-27T03:36:38.071Z,95671.55
2018-05-27T03:39:06.534Z,95666.69
2018-05-27T03:41:34.947Z,95664.71
2018-05-27T03:44:03.447Z,95660.75
2018-05-27T03:46:32.634Z,95664.95
2018-05-27T03:49:01.085Z,95657.33
2018-05-27T03:51:29.528Z,95663.00
2018-05-27T03:53:58.741Z,95665.59
2018-05-27T03:56:27.148Z,95667.24
2018-05-27T03:58:55.594Z,95664.65
2018-05-27T04:01:24.780Z,95669.27
2018-05-27T04:04:10.828Z,95669.80
2018-05-27T04:06:56.872Z,95676.97
2018-05-27T04:09:26.083Z,95680.13
2018-05-27T04:11:54.491Z,95689.64
2018-05-27T04:14:22.941Z,95687.06
2018-05-27T04:16:52.113Z,95690.62
2018-05-27T04:19:20.563Z,95694.06
2018-05-27T04:21:48.985Z,95693.98
2018-05-27T04:24:17.440Z,95697.56
2018-05-27T04:26:45.859Z,95703.88
2018-05-27T04:29:14.279Z,95696.91
2018-05-27T04:31:42.724Z,95697.34
2018-05-27T04:34:11.141Z,95703.59
2018-05-27T04:36:39.594Z,95699.97
2018-05-27T04:39:08.012Z,95708.59
2018-05-27T04:41:36.476Z,95704.16
2018-05-27T04:44:05.645Z,95710.25
2018-05-27T04:46:34.103Z,95712.15
2018-05-27T04:49:02.527Z,95711.63
2018-05-27T04:51:31.038Z,95711.81
2018-05-27T04:54:00.231Z,95713.41
2018-05-27T04:56:28.686Z,95711.13
2018-05-27T04:58:57.110Z,95715.16
2018-05-27T05:01:26.334Z,95718.14
2018-05-27T05:03:54.789Z,95712.27
2018-05-27T05:06:23.230Z,95719.21
2018-05-27T05:08:51.665Z,95714.17
2018-05-27T05:11:20.107Z,95709.91
2018-05-27T05:13:48.539Z,95713.31
2018-05-27T05:16:17.765Z,95705.11
2018-05-27T05:18:46.197Z,95706.86
2018-05-27T05:21:14.686Z,95701.86
2018-05-27T05:23:43.153Z,95699.20
2018-05-27T05:26:11.633Z,95699.48
2018-05-27T05:28:40.077Z,95706.59
2018-05-27T05:31:08.564Z,95701.29
2018-05-27T05:33:36.988Z,95699.86
2018-05-27T05:36:05.470Z,95697.36
2018-05-27T05:38:33.905Z,95697.72
2018-05-27T05:41:03.189Z,95698.02
2018-05-27T05:43:31.677Z,95704.50
2018-05-27T05:46:00.184Z,95703.95
2018-05-27T05:48:29.415Z,95695.80
2018-05-27T05:50:57.939Z,95711.63
2018-05-27T05:53:26.404Z,95709.50
2018-05-27T05:55:54.944Z,95716.77
2018-05-27T05:58:24.167Z,95724.30
2018-05-27T06:00:52.726Z,95726.73
2018-05-27T06:03:21.954Z,95726.12
2018-05-27T06:05:50.464Z,95722.12
2018-05-27T06:08:18.911Z,95729.73
2018-05-27T06:10:47.414Z,95720.75
2018-05-27T06:13:15.853Z,95723.96
2018-05-27T06:15:44.278Z,95727.66
2018-05-27T06:18:12.735Z,95731.26
2018-05-27T06:20:41.978Z,95734.56
2018-05-27T06:23:10.458Z,95738.19
2018-05-27T06:25:38.914Z,95745.20
2018-05-27T06:28:08.135Z,95747.55
2018-05-27T06:30:36.570Z,95750.56
2018-05-27T06:33:05.050Z,95745.58
2018-05-27T06:35:33.481Z,95745.45
2018-05-27T06:38:02.065Z,95747.11
2018-05-27T06:40:30.689Z,95755.19
2018-05-27T06:42:59.224Z,95750.80
2018-05-27T06:45:28.459Z,95755.64
2018-05-27T06:47:57.047Z,95754.33
2018-05-27T06:50:25.492Z,95750.47
2018-05-27T06:52:53.954Z,95748.55
2018-05-27T06:55:22.402Z,95749.79
2018-05-27T06:57:50.860Z,95752.83
2018-05-27T07:00:20.046Z,95752.48
2018-05-27T07:02:48.514Z,95760.72
2018-05-27T07:05:16.974Z,95755.95
2018-05-27T07:07:45.449Z,95757.77
2018-05-27T07:10:13.864Z,95758.36
2018-05-27T07:12:42.323Z,95763.42
2018-05-27T07:15:11.526Z,95761.86
2018-05-27T07:17:39.982Z,95749.77
2018-05-27T07:20:08.419Z,95749.86
2018-05-27T07:22:36.903Z,95749.20
2018-05-27T07:25:05.322Z,95747.51
2018-05-27T07:27:34.575Z,95744.31
2018-05-27T07:30:03.055Z,95749.21
2018-05-27T07:32:31.573Z,95747.98
2018-05-27T07:34:59.993Z,95741.67
2018-05-27T07:37:28.459Z,95742.62
2018-05-27T07:39:56.890Z,95747.17
2018-05-27T07:42:25.412Z,95752.27
2018-05-27T07:44:53.853Z,95755.39
2018-05-27T07:47:22.335Z,95753.33
2018-05-27T07:49:50.819Z,95753.98
2018-05-27T07:52:19.273Z,95755.59
2018-05-27T07:54:47.756Z,95758.16
2018-05-27T07:57:16.234Z,95755.70
2018-05-27T07:59:44.693Z,95754.37
2018-05-27T08:02:13.113Z,95760.46
2018-05-27T08:04:42.329Z,95761.44
2018-05-27T08:07:11.539Z,95757.35
2018-05-27T08:09:40.754Z,95762.15
2018-05-27T08:12:09.177Z,95762.47
2018-05-27T08:14:37.644Z,95763.16
2018-05-27T08:17:06.080Z,95760.67
2018-05-27T08:19:34.533Z,95760.36
2018-05-27T08:22:03.863Z,95766.95
2018-05-27T08:24:33.283Z,95769.91
2018-05-27T08:27:02.467Z,95770.37
2018-05-27T08:29:32.467Z,95763.01
2018-05-27T08:32:01.683Z,95770.58
2018-05-27T08:34:30.198Z,95767.69
2018-05-27T08:36:58.631Z,95769.72
2018-05-27T08:39:27.085Z,95782.66
2018-05-27T08:41:55.510Z,95783.03
2018-05-27T08:44:23.973Z,95791.22
2018-05-27T08:46:52.403Z,95786.42
2018-05-27T08:49:21.624Z,95790.12
2018-05-27T08:51:50.814Z,95796.31
2018-05-27T08:54:20.077Z,95798.30
2018-05-27T08:56:48.512Z,95797.59
2018-05-27T08:59:17.739Z,95791.58
2018-05-27T09:01:46.273Z,95786.91
2018-05-27T09:04:14.726Z,95790.83
2018-05-27T09:06:43.135Z,95798.67
2018-05-27T09:09:11.759Z,95795.55
2018-05-27T09:11:40.986Z,95797.99
2018-05-27T09:14:09.434Z,95800.89
2018-05-27T09:16:37.856Z,95799.45
2018-05-27T09:19:06.306Z,95798.52
2018-05-27T09:21:35.496Z,95798.77
2018-05-27T09:24:03.935Z,95794.98
2018-05-27T09:26:32.381Z,95803.36
2018-05-27T09:29:01.589Z,95800.32
2018-05-27T09:31:30.764Z,95798.78
2018-05-27T09:33:59.863Z,95800.24
2018-05-27T09:36:28.275Z,95799.86
2018-05-27T09:38:57.482Z,95800.79
2018-05-27T09:41:26.668Z,95802.19
2018-05-27T09:43:55.932Z,95799.04
2018-05-27T09:46:24.356Z,95795.06
2018-05-27T09:48:53.677Z,95798.44
2018-05-27T09:51:22.128Z,95797.64
2018-05-27T09:53:50.631Z,95800.13
2018-05-27T09:56:19.967Z,95803.23
2018-05-27T09:58:48.445Z,95807.97
2018-05-27T10:01:16.972Z,95805.14
2018-05-27T10:03:46.061Z,95809.95
2018-05-27T10:06:14.592Z,95805.46
2018-05-27T10:08:43.801Z,95801.59
2018-05-27T10:11:13.013Z,95801.41
2018-05-27T10:13:41.436Z,95805.73
2018-05-27T10:16:09.901Z,95801.48
2018-05-27T10:18:38.372Z,95800.58
2018-05-27T10:21:06.837Z,95800.09
2018-05-27T10:23:36.060Z,95795.65
2018-05-27T10:26:04.555Z,95795.92
2018-05-27T10:28:32.973Z,95795.78
2018-05-27T10:31:01.444Z,95803.82
2018-05-27T10:33:29.855Z,95810.27
2018-05-27T10:35:58.325Z,95810.38
2018-05-27T10:38:26.761Z,95801.14
2018-05-27T10:40:55.237Z,95797.99
2018-05-27T10:43:23.651Z,95798.08
2018-05-27T10:45:52.115Z,95792.44
2018-05-27T10:48:21.314Z,95790.98
2018-05-27T10:50:50.572Z,95785.80
2018-05-27T10:53:19.009Z,95786.93
2018-05-27T10:55:47.475Z,95778.59
2018-05-27T10:58:16.660Z,95781.61
2018-05-27T11:00:45.101Z,95784.33
2018-05-27T11:03:13.540Z,95785.67
2018-05-27T11:05:41.992Z,95787.26
2018-05-27T11:08:10.422Z,95779.71
2018-05-27T11:10:39.676Z,95775.66
2018-05-27T11:13:08.140Z,95781.33
2018-05-27T11:15:36.595Z,95781.70
2018-05-27T11:18:05.781Z,95786.05
2018-05-27T11:20:35.045Z,95774.51
2018-05-27T11:23:03.520Z,95765.23
2018-05-27T11:25:32.036Z,95769.85
2018-05-27T11:28:00.483Z,95773.47
2018-05-27T11:30:28.980Z,95763.42
2018-05-27T11:32:57.423Z,95757.89
2018-05-27T11:35:26.660Z,95751.83
2018-05-27T11:37:55.099Z,95754.50
2018-05-27T11:40:23.553Z,95757.89
2018-05-27T11:42:51.968Z,95757.22
2018-05-27T11:45:20.460Z,95756.98
2018-05-27T11:47:48.902Z,95751.09
2018-05-27T11:50:17.351Z,95746.45
2018-05-27T11:52:45.769Z,95739.97
2018-05-27T11:55:14.240Z,95728.64
2018-05-27T11:57:42.699Z,95716.06
2018-05-27T12:00:11.187Z,95718.83
2018-05-27T12:02:39.711Z,95720.05
2018-05-27T12:05:08.169Z,95722.84
2018-05-27T12:07:36.587Z,95736.34
2018-05-27T12:10:05.110Z,95731.27
2018-05-27T12:12:34.307Z,95732.63
2018-05-27T12:15:02.757Z,95728.60
2018-05-27T12:17:31.199Z,95730.77
2018-05-27T12:19:59.618Z,95734.94
2018-05-27T12:22:28.116Z,95729.23
2018-05-27T12:24:56.569Z,95726.25
2018-05-27T12:27:25.159Z,95723.13
2018-05-27T12:29:53.616Z,95723.03
2018-05-27T12:32:22.111Z,95722.12
2018-05-27T12:34:51.335Z,95732.02
2018-05-27T12:37:19.882Z,95731.65
2018-05-27T12:39:48.342Z,95721.39
2018-05-27T12:42:16.805Z,95725.90
2018-05-27T12:44:45.246Z,95721.64
2018-05-27T12:47:14.559Z,95722.95
2018-05-27T12:49:43.031Z,95719.28
2018-05-27T12:52:12.305Z,95721.19
2018-05-27T12:54:40.776Z,95726.34
2018-05-27T12:57:09.231Z,95726.80
2018-05-27T12:59:37.679Z,95722.70
2018-05-27T13:02:06.968Z,95726.48
2018-05-27T13:04:35.398Z,95721.23
2018-05-27T13:07:03.879Z,95723.34
2018-05-27T13:09:33.129Z,95728.66
2018-05-27T13:12:01.600Z,95731.34
2018-05-27T13:14:30.098Z,95733.59
2018-05-27T13:16:58.872Z,95727.17
2018-05-27T13:19:27.037Z,95728.50
2018-05-27T13:21:55.516Z,95718.00
2018-05-27T13:24:24.000Z,95721.30
2018-05-27T13:26:52.478Z,95714.03
2018-05-27T13:29:20.905Z,95714.80
2018-05-27T13:31:49.779Z,95709.86
2018-05-27T13:34:18.239Z,95708.48
2018-05-27T13:36:47.486Z,95709.95
2018-05-27T13:39:15.946Z,95705.34
2018-05-27T13:41:44.393Z,95708.10
2018-05-27T13:44:12.877Z,95707.03
2018-05-27T13:46:41.391Z,95705.88
2018-05-27T13:49:09.842Z,95706.78
2018-05-27T13:51:38.307Z,95685.62
2018-05-27T13:54:06.762Z,95698.41
2018-05-27T13:56:35.272Z,95692.04
2018-05-27T13:59:03.725Z,95695.73
2018-05-27T14:01:32.211Z,95693.72
2018-05-27T14:04:00.640Z,95695.70
2018-05-27T14:06:29.125Z,95687.06
2018-05-27T14:08:57.580Z,95688.88
2018-05-27T14:11:26.075Z,95684.60
2018-05-27T14:13:54.556Z,95680.95
2018-05-27T14:16:23.056Z,95684.39
2018-05-27T14:18:51.568Z,95675.15
2018-05-27T14:21:20.062Z,95678.41
2018-05-27T14:23:49.330Z,95662.52
2018-05-27T14:26:17.845Z,95659.36
2018-05-27T14:28:46.331Z,95647.00
2018-05-27T14:31:15.546Z,95656.42
2018-05-27T14:33:44.802Z,95650.75
2018-05-27T14:36:13.276Z,95649.81
2018-05-27T14:38:42.291Z,95655.86
2018-05-27T14:41:11.466Z,95661.27
2018-05-27T14:43:40.701Z,95660.38
2018-05-27T14:46:09.175Z,95651.08
2018-05-27T14:48:37.677Z,95660.95
2018-05-27T14:51:06.162Z,95661.28
2018-05-27T14:53:34.709Z,95661.92
2018-05-27T14:56:03.190Z,95667.20
2018-05-27T14:58:31.683Z,95653.88
2018-05-27T15:01:00.176Z,95651.96
2018-05-27T15:03:28.719Z,95644.82
2018-05-27T15:05:57.167Z,95643.48
2018-05-27T15:08:25.640Z,95645.20
2018-05-27T15:10:54.108Z,95652.98
2018-05-27T15:13:22.589Z,95650.25
2018-05-27T15:15:51.043Z,95649.92
2018-05-27T15:18:19.545Z,95644.95
2018-05-27T15:20:48.739Z,95647.20
2018-05-27T15:23:18.009Z,95643.52
2018-05-27T15:25:46.455Z,95639.09
2018-05-27T15:28:14.953Z,95636.14
2018-05-27T15:30:43.403Z,95643.58
2018-05-27T15:33:11.896Z,95634.14
2018-05-27T15:35:40.326Z,95633.55
2018-05-27T15:38:08.798Z,95630.34
2018-05-27T15:40:37.220Z,95631.34
2018-05-27T15:43:05.658Z,95632.22
2018-05-27T15:45:34.565Z,95625.87
2018-05-27T15:48:03.009Z,95624.89
2018-05-27T15:50:32.203Z,95613.77
2018-05-27T15:53:01.424Z,95614.95
2018-05-27T15:55:29.827Z,95614.02
2018-05-27T15:57:58.280Z,95610.95
2018-05-27T16:00:27.451Z,95602.37
2018-05-27T16:02:55.899Z,95602.78
2018-05-27T16:05:24.373Z,95598.29
2018-05-27T16:07:53.670Z,95592.18
2018-05-27T16:10:22.089Z,95595.39
2018-05-27T16:12:50.525Z,95596.83
2018-05-27T16:15:19.699Z,95583.75
2018-05-27T16:17:48.161Z,95574.61
2018-05-27T16:20:16.562Z,95574.86
2018-05-27T16:22:45.046Z,95581.28
2018-05-27T16:25:13.515Z,95575.50
2018-05-27T16:27:41.942Z,95580.95
2018-05-27T16:30:11.169Z,95577.75
2018-05-27T16:32:39.592Z,95574.95
2018-05-27T16:35:08.043Z,95573.58
2018-05-27T16:37:36.484Z,95572.37
2018-05-27T16:40:04.957Z,95566.69
2018-05-27T16:42:33.405Z,95565.33
2018-05-27T16:45:01.879Z,95560.77
2018-05-27T16:47:30.385Z,95559.06
2018-05-27T16:49:58.831Z,95561.54
2018-05-27T16:52:27.279Z,95556.11
2018-05-27T16:54:55.723Z,95557.70
2018-05-27T16:57:24.216Z,95562.19
2018-05-27T16:59:52.695Z,95563.48
2018-05-27T17:02:21.143Z,95556.66
2018-05-27T17:04:49.602Z,95557.52
2018-05-27T17:07:18.002Z,95559.23
2018-05-27T17:09:46.482Z,95555.04
2018-05-27T17:12:14.864Z,95559.88
2018-05-27T17:14:43.311Z,95555.69
2018-05-27T17:17:11.706Z,95555.36
2018-05-27T17:19:40.129Z,95553.92
2018-05-27T17:22:09.470Z,95554.73
2018-05-27T17:24:37.921Z,95556.91
2018-05-27T17:27:07.123Z,95560.26
2018-05-27T17:29:36.344Z,95565.23
2018-05-27T17:32:04.818Z,95565.86
2018-05-27T17:34:34.073Z,95571.72
2018-05-27T17:37:02.536Z,95568.44
2018-05-27T17:39:30.982Z,95569.73
2018-05-27T17:41:59.409Z,95568.69
2018-05-27T17:44:27.853Z,95574.37
2018-05-27T17:46:57.043Z,95573.08
2018-05-27T17:49:25.494Z,95576.13
2018-05-27T17:51:53.915Z,95571.02
2018-05-27T17:54:22.376Z,95577.68
2018-05-27T17:56:50.810Z,95587.52
2018-05-27T17:59:20.041Z,95589.28
2018-05-27T18:01:48.459Z,95587.08
2018-05-27T18:04:16.943Z,95582.31
2018-05-27T18:06:45.394Z,95585.36
2018-05-27T18:09:13.836Z,95585.84
2018-05-27T18:11:42.267Z,95584.77
2018-05-27T18:14:10.767Z,95590.46
2018-05-27T18:16:39.222Z,95587.09
2018-05-27T18:19:07.716Z,95580.44
2018-05-27T18:21:36.144Z,95583.16
2018-05-27T18:24:04.759Z,95585.07
2018-05-27T18:26:33.431Z,95575.31
2018-05-27T18:29:02.625Z,95568.84
2018-05-27T18:31:31.267Z,95563.83
2018-05-27T18:33:59.731Z,95558.94
2018-05-27T18:36:28.939Z,95557.83
2018-05-27T18:38:57.391Z,95550.45
2018-05-27T18:41:25.868Z,95542.45
2018-05-27T18:43:54.285Z,95553.06
2018-05-27T18:46:23.523Z,95544.80
2018-05-27T18:48:52.932Z,95544.97
2018-05-27T18:51:21.417Z,95540.78
2018-05-27T18:53:50.632Z,95539.28
2018-05-27T18:56:19.156Z,95548.30
2018-05-27T18:58:48.356Z,95543.65
2018-05-27T19:01:16.817Z,95547.62
2018-05-27T19:03:45.290Z,95551.20
2018-05-27T19:06:13.832Z,95558.27
2018-05-27T19:08:44.129Z,95558.06
2018-05-27T19:11:13.434Z,95563.55
2018-05-27T19:13:42.655Z,95561.20
2018-05-27T19:16:11.207Z,95577.94
2018-05-27T19:18:39.738Z,95593.84
2018-05-27T19:21:11.019Z,95601.48
2018-05-27T19:23:39.656Z,95620.76
2018-05-27T19:26:08.197Z,95620.90
2018-05-27T19:28:36.795Z,95624.14
2018-05-27T19:31:05.334Z,95632.86
2018-05-27T19:33:34.751Z,95639.40
2018-05-27T19:36:03.211Z,95644.82
2018-05-27T19:38:32.398Z,95646.55
2018-05-27T19:41:00.850Z,95647.46
2018-05-27T19:43:29.306Z,95649.56
2018-05-27T19:45:57.837Z,95649.86
2018-05-27T19:48:26.289Z,95655.35
2018-05-27T19:50:54.783Z,95652.67
2018-05-27T19:53:23.391Z,95654.33
2018-05-27T19:55:51.880Z,95657.55
2018-05-27T19:58:20.386Z,95655.69
2018-05-27T20:00:49.032Z,95658.70
2018-05-27T20:03:17.631Z,95661.17
2018-05-27T20:05:46.102Z,95667.50
2018-05-27T20:08:14.546Z,95667.67
2018-05-27T20:10:43.820Z,95669.02
2018-05-27T20:13:12.351Z,95668.78
2018-05-27T20:15:41.788Z,95674.31
2018-05-27T20:18:10.379Z,95672.11
2018-05-27T20:20:38.858Z,95680.02
2018-05-27T20:23:07.389Z,95686.05
2018-05-27T20:25:35.863Z,95684.44
2018-05-27T20:28:04.402Z,95672.97
2018-05-27T20:30:33.027Z,95672.08
2018-05-27T20:33:01.510Z,95667.05
2018-05-27T20:35:30.031Z,95670.56
2018-05-27T20:37:58.490Z,95677.27
2018-05-27T20:40:27.095Z,95674.89
2018-05-27T20:42:55.561Z,95675.49
2018-05-27T20:45:24.170Z,95676.84
2018-05-27T20:47:52.821Z,95676.95
2018-05-27T20:50:21.352Z,95671.54
2018-05-27T20:52:50.702Z,95672.23
2018-05-27T20:55:19.338Z,95677.58
2018-05-27T20:57:47.850Z,95672.05
2018-05-27T21:00:16.499Z,95682.53
2018-05-27T21:02:45.077Z,95675.11
2018-05-27T21:05:13.602Z,95675.33
2018-05-27T21:07:42.989Z,95682.37
2018-05-27T21:10:11.439Z,95672.89
2018-05-27T21:12:40.012Z,95676.06
2018-05-27T21:15:08.449Z,95658.72
2018-05-27T21:17:37.058Z,95661.93
2018-05-27T21:20:06.388Z,95660.82
2018-05-27T21:22:34.979Z,95668.73
2018-05-27T21:25:04.172Z,95665.34
2018-05-27T21:27:32.661Z,95660.17
2018-05-27T21:30:01.081Z,95660.47
2018-05-27T21:32:29.550Z,95656.48
2018-05-27T21:34:58.009Z,95654.09
2018-05-27T21:37:26.499Z,95656.73
2018-05-27T21:39:54.954Z,95649.56
2018-05-27T21:42:23.490Z,95654.86
2018-05-27T21:44:51.921Z,95660.07
2018-05-27T21:47:20.372Z,95654.82
2018-05-27T21:49:48.796Z,95653.02
2018-05-27T21:52:17.256Z,95649.02
2018-05-27T21:54:45.715Z,95655.11
2018-05-27T21:57:14.151Z,95656.69
2018-05-27T21:59:43.353Z,95652.56
2018-05-27T22:02:11.847Z,95648.95
2018-05-27T22:04:40.283Z,95646.96
2018-05-27T22:07:08.756Z,95650.11
2018-05-27T22:09:37.172Z,95644.64
2018-05-27T22:12:05.617Z,95645.62
2018-05-27T22:14:34.041Z,95648.65
2018-05-27T22:17:02.471Z,95642.73
2018-05-27T22:19:30.899Z,95645.55
2018-05-27T22:21:59.353Z,95632.73
2018-05-27T22:24:27.842Z,95634.62
2018-05-27T22:26:56.357Z,95627.89
2018-05-27T22:29:24.819Z,95627.89
2018-05-27T22:31:53.303Z,95626.31
2018-05-27T22:34:22.491Z,95621.77
2018-05-27T22:36:50.963Z,95618.02
2018-05-27T22:39:19.416Z,95613.28
2018-05-27T22:41:47.866Z,95611.51
2018-05-27T22:44:16.293Z,95606.79
2018-05-27T22:46:44.702Z,95602.98
2018-05-27T22:49:13.222Z,95599.52
2018-05-27T22:51:42.421Z,95595.74
2018-05-27T22:54:10.867Z,95596.47
2018-05-27T22:56:40.076Z,95602.05
2018-05-27T22:59:09.337Z,95597.33
2018-05-27T23:01:37.738Z,95595.31
2018-05-27T23:04:06.201Z,95599.91
2018-05-27T23:06:34.661Z,95601.39
2018-05-27T23:09:03.179Z,95604.19
2018-05-27T23:11:31.640Z,95610.22
2018-05-27T23:14:00.133Z,95605.66
2018-05-27T23:16:28.627Z,95607.42
2018-05-27T23:18:57.107Z,95607.42
2018-05-27T23:21:25.584Z,95605.95
2018-05-27T23:23:54.090Z,95606.47
2018-05-27T23:26:22.585Z,95608.23
2018-05-27T23:28:51.109Z,95611.77
2018-05-27T23:31:19.586Z,95611.78
2018-05-27T23:33:48.863Z,95607.09
2018-05-27T23:36:17.318Z,95610.09
2018-05-27T23:38:45.821Z,95615.19
2018-05-27T23:41:15.155Z,95613.89
2018-05-27T23:43:44.496Z,95613.36
2018-05-27T23:46:12.975Z,95615.25
2018-05-27T23:48:41.435Z,95618.77
2018-05-27T23:51:10.740Z,95619.19
2018-05-27T23:53:39.974Z,95620.66
2018-05-27T23:56:08.403Z,95616.78
2018-05-27T23:58:36.860Z,95620.14
